Data for 06/06/2014

Time Sea-Level Adjusted Pressure Absolute Pressure Temperature Relative Humidity Dew Point   
(mb) (inHg) (mb) (inHg) (C) (F) (%) (C) (F)
00:05 1019 30.09 848 25.04 9.8 49.7 70 4.5 40.2
00:10 1019 30.09 848 25.04 9.7 49.5 70 4.6 40.2
00:15 1019 30.09 848 25.04 9.6 49.3 70 4.5 40.1
00:20 1019 30.09 848 25.04 9.5 49.1 71 4.5 40
00:25 1019 30.09 848 25.04 9.4 48.9 71 4.5 40
00:30 1019 30.09 848 25.04 9.3 48.8 71 4.4 39.9
00:35 1019 30.09 848 25.04 9.3 48.8 71 4.4 39.9
00:40 1019 30.09 848 25.04 9.3 48.7 71 4.4 39.9
00:45 1019 30.09 848 25.04 9.2 48.6 72 4.4 39.9
00:50 1019 30.09 848 25.04 9.1 48.4 72 4.3 39.8
00:55 1019 30.09 848 25.04 9 48.3 72 4.3 39.7
01:00 1019 30.09 848 25.04 9 48.1 72 4.3 39.7
01:05 1019 30.09 848 25.04 8.9 48 72 4.2 39.6
01:10 1019 30.09 848 25.04 8.8 47.9 73 4.3 39.8
01:15 1019 30.09 848 25.04 8.8 47.8 73 4.2 39.5
01:20 1019 30.09 848 25.04 8.8 47.8 73 4.1 39.5
01:25 1019 30.09 848 25.04 8.7 47.7 73 4.1 39.4
01:30 1019 30.09 848 25.04 8.6 47.5 73 4.1 39.3
01:35 1019 30.09 848 25.04 8.6 47.4 74 4.1 39.4
01:40 1019 30.09 848 25.04 8.5 47.4 73 4.1 39.3
01:45 1019 30.09 848 25.04 8.5 47.2 74 4.1 39.3
01:50 1019 30.09 848 25.04 8.4 47 74 4.1 39.3
01:55 1019 30.09 848 25.04 8.3 47 75 4.1 39.4
02:00 1019 30.09 848 25.04 8.3 46.9 75 4.1 39.4
02:05 1019 30.09 848 25.04 8.3 46.9 75 4.1 39.4
02:10 1019 30.09 848 25.04 8.3 46.9 75 4.1 39.4
02:15 1019 30.09 848 25.04 8.2 46.8 75 4.1 39.4
02:20 1019 30.09 848 25.04 8.2 46.7 75 4.1 39.3
02:25 1019 30.09 848 25.04 8.1 46.6 75 4 39.1
02:30 1019 30.09 848 25.04 8.1 46.5 75 3.9 39.1
02:35 1019 30.09 848 25.04 8 46.4 75 3.8 38.9
02:40 1019 30.09 848 25.04 8 46.3 75 3.9 38.9
02:45 1019 30.09 848 25.04 7.9 46.3 75 3.8 38.8
02:50 1019 30.09 848 25.04 7.9 46.2 75 3.8 38.8
02:55 1019 30.09 848 25.04 7.9 46.1 75 3.7 38.6
03:00 1019 30.09 848 25.04 7.8 46.1 75 3.7 38.7
03:05 1019 30.09 848 25.04 7.8 46 75 3.7 38.6
03:10 1019 30.09 848 25.04 7.8 46.1 75 3.7 38.6
03:15 1019 30.09 848 25.04 7.8 46 75 3.7 38.7
03:20 1019 30.09 848 25.04 7.8 46 75 3.7 38.6
03:25 1019 30.09 848 25.04 7.7 45.9 75 3.6 38.4
03:30 1019 30.09 848 25.04 7.7 45.8 75 3.6 38.4
03:35 1019 30.09 848 25.04 7.6 45.7 75 3.5 38.3
03:40 1019 30.09 848 25.04 7.6 45.6 75 3.5 38.3
03:45 1019 30.09 848 25.04 7.5 45.5 75 3.5 38.2
03:50 1019 30.09 848 25.04 7.5 45.4 75 3.4 38.1
03:55 1019 30.09 848 25.04 7.5 45.4 75 3.3 38
04:00 1019 30.09 848 25.04 7.5 45.4 75 3.3 37.9
04:05 1019 30.09 848 25.04 7.4 45.4 75 3.3 37.9
04:10 1019 30.09 848 25.04 7.4 45.3 75 3.2 37.8
04:15 1019 30.09 848 25.04 7.4 45.3 75 3.2 37.8
04:20 1019 30.09 848 25.04 7.3 45.2 75 3.1 37.6
04:25 1019 30.09 848 25.04 7.3 45.1 74 3.1 37.5
04:30 1019 30.09 848 25.04 7.3 45.1 75 3.1 37.6
04:35 1019 30.09 848 25.04 7.2 44.9 75 3.1 37.5
04:40 1019 30.09 848 25.04 7.2 44.9 75 3 37.4
04:45 1019 30.09 849 25.07 7.1 44.8 75 2.9 37.3
04:50 1019 30.09 849 25.07 7.1 44.8 75 3 37.3
04:55 1019 30.09 849 25.07 7.1 44.8 75 3 37.3
05:00 1019 30.09 849 25.07 7.1 44.7 75 3 37.3
05:05 1019 30.09 849 25.07 7.1 44.7 75 3 37.3
05:10 1019 30.09 849 25.07 7.1 44.7 75 3 37.4
05:15 1019 30.09 849 25.07 7.1 44.7 75 3 37.4
05:20 1019 30.09 849 25.07 7.1 44.8 75 3 37.5
05:25 1019 30.09 849 25.07 7.1 44.7 76 3.1 37.5
05:30 1020 30.12 849 25.07 7.1 44.7 76 3.1 37.6
05:35 1020 30.12 849 25.07 7.1 44.7 76 3.2 37.7
05:40 1020 30.12 849 25.07 7.1 44.7 76 3.2 37.8
05:45 1020 30.12 849 25.07 7 44.7 76 3.2 37.7
05:50 1020 30.12 849 25.07 7.1 44.7 77 3.2 37.8
05:55 1020 30.12 849 25.07 7.1 44.7 76 3.2 37.8
06:00 1020 30.12 849 25.07 7.1 44.8 77 3.3 38
06:05 1020 30.12 849 25.07 7.2 44.9 76 3.3 37.9
06:10 1020 30.12 849 25.07 7.2 44.9 77 3.4 38.1
06:15 1020 30.12 849 25.07 7.1 44.8 77 3.4 38
06:20 1020 30.12 849 25.07 7.1 44.8 78 3.5 38.2
06:25 1020 30.12 849 25.07 7.1 44.8 78 3.5 38.2
06:30 1020 30.12 849 25.07 7.2 44.9 77 3.5 38.3
06:35 1020 30.12 849 25.07 7.2 44.9 77 3.5 38.3
06:40 1020 30.12 849 25.07 7.1 44.9 78 3.5 38.4
06:45 1020 30.12 849 25.07 7.1 44.8 78 3.6 38.4
06:50 1020 30.12 849 25.07 7.1 44.9 79 3.7 38.6
06:55 1020 30.12 849 25.07 7.2 44.9 78 3.7 38.6
07:00 1020 30.12 849 25.07 7.2 45 78 3.7 38.7
07:05 1020 30.12 849 25.07 7.2 45 78 3.6 38.5
07:10 1020 30.12 849 25.07 7.4 45.2 76 3.5 38.2
07:15 1020 30.12 849 25.07 7.5 45.4 76 3.5 38.2
07:20 1020 30.12 849 25.07 7.6 45.7 75 3.5 38.3
07:25 1020 30.12 849 25.07 7.8 46.1 75 3.6 38.5
07:30 1020 30.12 849 25.07 7.7 45.9 74 3.4 38.2
07:35 1020 30.12 849 25.07 7.9 46.2 73 3.4 38.1
07:40 1020 30.12 849 25.07 7.8 46.1 75 3.6 38.5
07:45 1020 30.12 849 25.07 7.6 45.7 74 3.4 38.1
07:50 1020 30.12 849 25.07 8.1 46.5 73 3.5 38.4
07:55 1020 30.12 849 25.07 8 46.5 73 3.4 38.2
08:00 1020 30.12 849 25.07 8.2 46.7 73 3.5 38.4
08:05 1020 30.12 849 25.07 8.1 46.7 71 3.2 37.8
08:10 1020 30.12 849 25.07 8.4 47 71 3.4 38.2
08:15 1020 30.12 849 25.07 8.4 47.1 71 3.5 38.3
08:20 1020 30.12 849 25.07 8 46.4 73 3.5 38.4
08:25 1020 30.12 849 25.07 7.9 46.1 73 3.3 38
08:30 1020 30.12 849 25.07 8.5 47.4 70 3.4 38.1
08:35 1020 30.12 849 25.07 8.6 47.6 69 3.2 37.8
08:40 1020 30.12 849 25.07 8.9 48 68 3.3 38
08:45 1020 30.12 849 25.07 9.1 48.3 67 3.2 37.8
08:50 1020 30.12 849 25.07 9 48.1 67 3.2 37.7
08:55 1020 30.12 849 25.07 9.1 48.3 66 3 37.5
09:00 1020 30.12 849 25.07 9.5 49.2 65 3.4 38.2
09:05 1020 30.12 849 25.07 9.7 49.4 64 3.3 37.9
09:10 1020 30.12 849 25.07 9.8 49.7 65 3.7 38.6
09:15 1020 30.12 849 25.07 10.3 50.6 62 3.5 38.2
09:20 1020 30.12 849 25.07 10 49.9 63 3.4 38
09:25 1020 30.12 849 25.07 9.8 49.7 64 3.5 38.2
09:30 1020 30.12 849 25.07 10.1 50.1 64 3.7 38.6
09:35 1020 30.12 849 25.07 9.7 49.4 66 3.6 38.5
09:40 1020 30.12 849 25.07 10.1 50.1 64 3.6 38.5
09:45 1020 30.12 849 25.07 10.2 50.4 62 3.4 38.1
09:50 1020 30.12 849 25.07 10.6 51 64 4 39.2
09:55 1020 30.12 849 25.07 10.9 51.6 62 3.9 39.1
10:00 1020 30.12 849 25.07 11.1 52 62 4.2 39.5
10:05 1020 30.12 849 25.07 11.4 52.5 61 4.1 39.4
10:10 1020 30.12 849 25.07 11.3 52.4 62 4.3 39.7
10:15 1020 30.12 849 25.07 10.9 51.7 63 4.2 39.5
10:20 1020 30.12 849 25.07 11.4 52.6 61 4.1 39.4
10:25 1020 30.12 849 25.07 11.8 53.3 59 4.2 39.6
10:30 1020 30.12 849 25.07 12.7 54.8 54 3.7 38.6
10:35 1020 30.12 849 25.07 12 53.7 61 4.7 40.4
10:40 1020 30.12 849 25.07 12.1 53.7 57 3.8 38.8
10:45 1020 30.12 849 25.07 12.7 54.8 56 4.2 39.6
10:50 1020 30.12 849 25.07 12.2 53.9 58 4.2 39.6
10:55 1020 30.12 849 25.07 12.2 53.9 57 4 39.2
11:00 1020 30.12 849 25.07 12.2 53.9 57 4 39.2
11:05 1020 30.12 849 25.07 12.1 53.7 57 3.9 39.1
11:10 1020 30.12 849 25.07 12.7 54.8 56 4.2 39.6
11:15 1020 30.12 849 25.07 13.5 56.3 51 3.5 38.3
11:20 1020 30.12 849 25.07 13.6 56.5 52 4 39.1
11:25 1020 30.12 849 25.07 13.2 55.8 55 4.5 40.1
11:30 1020 30.12 849 25.07 12.7 54.9 55 4.1 39.4
11:35 1020 30.12 849 25.07 13.3 55.9 51 3.5 38.3
11:40 1020 30.12 849 25.07 12.9 55.3 56 4.5 40
11:45 1020 30.12 849 25.07 12.4 54.4 58 4.4 39.9
11:50 1020 30.12 849 25.07 12.4 54.4 56 4 39.2
11:55 1020 30.12 849 25.07 13.1 55.6 55 4.4 39.9
12:00 1020 30.12 849 25.07 13.9 56.9 53 4.6 40.2
12:05 1020 30.12 849 25.07 13.6 56.4 54 4.6 40.3
12:10 1020 30.12 849 25.07 13.1 55.6 54 4 39.2
12:15 1020 30.12 849 25.07 13.6 56.5 52 4 39.2
12:20 1020 30.12 849 25.07 14.7 58.5 46 3.4 38
12:25 1020 30.12 849 25.07 16.2 61.1 42 3.4 38
12:30 1020 30.12 849 25.07 16 60.9 45 4.1 39.4
12:35 1020 30.12 849 25.07 15.5 60 48 4.8 40.6
12:40 1020 30.12 849 25.07 14.7 58.5 49 4.1 39.4
12:45 1020 30.12 849 25.07 15.2 59.3 47 4.1 39.3
12:50 1020 30.12 849 25.07 14.2 57.6 49 3.7 38.6
12:55 1020 30.12 849 25.07 15 58.9 44 2.9 37.3
13:00 1019 30.09 849 25.07 14.7 58.4 46 3.3 37.9
13:05 1019 30.09 849 25.07 14.1 57.4 48 3.4 38.2
13:10 1019 30.09 849 25.07 14.4 57.9 48 3.5 38.4
13:15 1019 30.09 849 25.07 15 59.1 45 3.3 37.9
13:20 1019 30.09 849 25.07 14.5 58.1 46 3.1 37.6
13:25 1019 30.09 849 25.07 14.5 58 46 3 37.4
13:30 1019 30.09 849 25.07 15.1 59.1 44 3.1 37.6
13:35 1019 30.09 848 25.04 16.7 62.1 40 3 37.5
13:40 1019 30.09 848 25.04 16.8 62.2 41 3.5 38.4
13:45 1019 30.09 848 25.04 16 60.8 44 3.7 38.7
13:50 1019 30.09 848 25.04 15.9 60.7 39 2.2 36
13:55 1019 30.09 848 25.04 16.8 62.2 36 1.9 35.4
14:00 1019 30.09 848 25.04 16.7 62 43 4.3 39.8
14:05 1019 30.09 848 25.04 16.2 61.2 44 4.2 39.6
14:10 1019 30.09 848 25.04 16 60.8 42 3.4 38.1
14:15 1019 30.09 848 25.04 17 62.6 35 1.7 35
14:20 1019 30.09 848 25.04 17.7 63.9 35 2.3 36.2
14:25 1019 30.09 848 25.04 18.1 64.6 34 2.1 35.8
14:30 1019 30.09 848 25.04 18.4 65.2 34 2.2 36
14:35 1019 30.09 848 25.04 18.5 65.3 32 1.8 35.3
14:40 1019 30.09 848 25.04 18 64.4 35 2.3 36.1
14:45 1019 30.09 848 25.04 18 64.3 32 1.2 34.2
14:50 1019 30.09 848 25.04 17.7 63.9 35 2.2 35.9
14:55 1019 30.09 848 25.04 17.7 63.9 32 1.2 34.1
15:00 1019 30.09 848 25.04 18.4 65.1 32 1.5 34.7
15:05 1019 30.09 848 25.04 18.2 64.7 33 1.9 35.4
15:10 1019 30.09 848 25.04 18 64.5 33 1.5 34.8
15:15 1019 30.09 848 25.04 18 64.4 33 1.7 35
15:20 1019 30.09 848 25.04 17.2 63 36 2.3 36.1
15:25 1019 30.09 848 25.04 16.9 62.5 37 2.5 36.4
15:30 1018 30.06 848 25.04 17 62.5 36 1.8 35.2
15:35 1018 30.06 848 25.04 16.7 62.1 38 2.4 36.3
15:40 1018 30.06 848 25.04 16.2 61.2 37 1.6 34.8
15:45 1018 30.06 848 25.04 16.7 62.1 36 1.8 35.3
15:50 1018 30.06 848 25.04 16.6 61.8 38 2.2 36
15:55 1018 30.06 848 25.04 16.4 61.5 36 1.5 34.7
16:00 1018 30.06 848 25.04 17.3 63.1 32 0.3 32.6
16:05 1018 30.06 848 25.04 17.4 63.4 43 4.9 40.9
16:10 1019 30.09 848 25.04 16.4 61.4 46 5 40.9
16:15 1019 30.09 848 25.04 15.6 60 50 5.2 41.3
16:20 1019 30.09 848 25.04 15.3 59.6 49 4.8 40.7
16:25 1018 30.06 848 25.04 14.8 58.6 51 4.8 40.7
16:30 1018 30.06 848 25.04 14.8 58.6 50 4.7 40.4
16:35 1019 30.09 848 25.04 15.3 59.6 49 4.8 40.6
16:40 1019 30.09 848 25.04 15.1 59.2 49 4.6 40.3
16:45 1019 30.09 848 25.04 14.9 58.9 51 4.9 40.9
16:50 1019 30.09 848 25.04 14.8 58.7 50 4.7 40.4
16:55 1018 30.06 848 25.04 14.5 58.2 51 4.6 40.3
17:00 1019 30.09 848 25.04 14.9 58.9 50 4.7 40.5
17:05 1018 30.06 848 25.04 14.8 58.7 49 4.3 39.7
17:10 1018 30.06 848 25.04 14.7 58.4 50 4.6 40.2
17:15 1018 30.06 848 25.04 14.7 58.5 50 4.6 40.3
17:20 1018 30.06 848 25.04 14.6 58.2 50 4.4 39.8
17:25 1018 30.06 848 25.04 14.5 58.1 51 4.5 40.2
17:30 1018 30.06 848 25.04 14.3 57.7 52 4.5 40.1
17:35 1018 30.06 848 25.04 14.2 57.5 53 4.7 40.5
17:40 1018 30.06 848 25.04 13.8 56.9 53 4.4 39.9
17:45 1018 30.06 848 25.04 13.6 56.5 53 4.4 39.8
17:50 1019 30.09 848 25.04 13.5 56.3 54 4.4 39.9
17:55 1019 30.09 848 25.04 13.4 56.2 54 4.4 39.9
18:00 1019 30.09 848 25.04 13.1 55.6 54 4.1 39.4
18:05 1019 30.09 848 25.04 13.1 55.6 54 4.1 39.4
18:10 1019 30.09 848 25.04 13.1 55.6 54 4 39.3
18:15 1019 30.09 848 25.04 12.6 54.7 56 4.1 39.4
18:20 1019 30.09 848 25.04 12.4 54.4 56 3.9 39.1
18:25 1019 30.09 848 25.04 12.1 53.9 57 4 39.1
18:30 1019 30.09 848 25.04 11.8 53.3 59 4.1 39.3
18:35 1019 30.09 848 25.04 11.6 52.9 59 4 39.2
18:40 1019 30.09 848 25.04 11.4 52.6 60 3.9 39.1
18:45 1019 30.09 848 25.04 11.4 52.4 61 4.1 39.3
18:50 1019 30.09 848 25.04 11.2 52.2 60 3.8 38.9
18:55 1019 30.09 848 25.04 11 51.9 61 3.8 38.9
19:00 1019 30.09 848 25.04 11 51.7 61 3.8 38.9
19:05 1019 30.09 848 25.04 10.8 51.5 62 3.8 38.9
19:10 1019 30.09 848 25.04 10.7 51.3 62 3.7 38.7
19:15 1019 30.09 849 25.07 10.5 50.9 62 3.7 38.6
19:20 1019 30.09 849 25.07 10.4 50.7 62 3.6 38.4
19:25 1020 30.12 849 25.07 10.2 50.4 63 3.6 38.6
19:30 1020 30.12 849 25.07 10.1 50.1 64 3.6 38.4
19:35 1020 30.12 849 25.07 10 49.9 65 3.6 38.5
19:40 1020 30.12 849 25.07 9.8 49.7 65 3.7 38.6
19:45 1020 30.12 849 25.07 9.7 49.5 66 3.7 38.7
19:50 1020 30.12 849 25.07 9.6 49.2 66 3.6 38.5
19:55 1020 30.12 849 25.07 9.5 49 66 3.4 38.2
20:00 1020 30.12 849 25.07 9.4 48.9 67 3.6 38.4
20:05 1020 30.12 849 25.07 9.3 48.7 67 3.5 38.4
20:10 1020 30.12 849 25.07 9.2 48.5 68 3.6 38.4
20:15 1020 30.12 849 25.07 9.1 48.3 68 3.5 38.4
20:20 1020 30.12 849 25.07 9 48.3 68 3.6 38.4
20:25 1020 30.12 849 25.07 8.9 48 69 3.6 38.4
20:30 1020 30.12 849 25.07 8.9 47.9 69 3.5 38.3
20:35 1020 30.12 849 25.07 8.8 47.9 69 3.4 38.1
20:40 1020 30.12 849 25.07 8.8 47.8 69 3.5 38.3
20:45 1020 30.12 849 25.07 8.7 47.6 69 3.4 38.2
20:50 1020 30.12 849 25.07 8.6 47.5 71 3.6 38.5
20:55 1020 30.12 849 25.07 8.5 47.3 71 3.5 38.3
21:00 1020 30.12 849 25.07 8.4 47.1 71 3.5 38.3
21:05 1020 30.12 849 25.07 8.3 47 72 3.6 38.5
21:10 1020 30.12 850 25.1 8.2 46.8 73 3.7 38.6
21:15 1020 30.12 850 25.1 8.1 46.7 73 3.6 38.4
21:20 1020 30.12 850 25.1 8.1 46.6 73 3.6 38.5
21:25 1020 30.12 850 25.1 8.1 46.6 73 3.5 38.3
21:30 1021 30.15 850 25.1 8.1 46.5 73 3.6 38.5
21:35 1021 30.15 850 25.1 8 46.4 73 3.5 38.4
21:40 1021 30.15 850 25.1 8 46.4 74 3.6 38.6
21:45 1021 30.15 850 25.1 7.9 46.2 75 3.7 38.6
21:50 1021 30.15 850 25.1 7.8 46.1 75 3.6 38.5
21:55 1021 30.15 850 25.1 7.8 46.1 75 3.6 38.5
22:00 1021 30.15 850 25.1 7.7 45.9 75 3.6 38.5
22:05 1021 30.15 850 25.1 7.7 45.9 75 3.5 38.4
22:10 1021 30.15 850 25.1 7.7 45.8 75 3.5 38.4
22:15 1021 30.15 850 25.1 7.6 45.7 75 3.5 38.4
22:20 1021 30.15 850 25.1 7.6 45.7 75 3.5 38.3
22:25 1021 30.15 850 25.1 7.6 45.6 75 3.5 38.3
22:30 1021 30.15 850 25.1 7.5 45.6 75 3.4 38.1
22:35 1021 30.15 850 25.1 7.5 45.4 75 3.3 38
22:40 1021 30.15 850 25.1 7.5 45.4 75 3.4 38.1
22:45 1021 30.15 850 25.1 7.4 45.2 76 3.4 38.1
22:50 1021 30.15 850 25.1 7.3 45.2 76 3.3 38
22:55 1021 30.15 850 25.1 7.3 45.1 76 3.3 37.9
23:00 1021 30.15 850 25.1 7.2 45 76 3.3 37.9
23:05 1021 30.15 850 25.1 7.2 45 76 3.3 37.9
23:10 1021 30.15 850 25.1 7.2 44.9 76 3.2 37.7
23:15 1021 30.15 850 25.1 7.1 44.8 76 3.2 37.7
23:20 1021 30.15 850 25.1 7.2 44.9 75 3.1 37.6
23:25 1021 30.15 850 25.1 7.2 45 75 3.1 37.6
23:30 1020 30.12 850 25.1 7.3 45.1 74 3 37.3
23:35 1020 30.12 850 25.1 7.3 45.1 74 3.1 37.5
23:40 1021 30.15 850 25.1 7.3 45.1 74 3 37.3
23:45 1020 30.12 850 25.1 7.2 45 74 2.8 37.1
23:50 1021 30.15 850 25.1 7.3 45.1 74 2.9 37.3
23:55 1021 30.15 850 25.1 7.2 45 74 2.9 37.3
24:00 1021 30.15 850 25.1 7.2 44.9 74 2.9 37.2